sensor_id;sensor_type;location;lat;lon;timestamp;P1;durP1;ratioP1;P2;durP2;ratioP2
46308;SDS011;32037;50.820;6.494;2022-08-03T00:01:44;2.93;;;1.73;;
46308;SDS011;32037;50.820;6.494;2022-08-03T00:04:12;1.60;;;1.50;;
46308;SDS011;32037;50.820;6.494;2022-08-03T00:06:40;1.57;;;1.47;;
46308;SDS011;32037;50.820;6.494;2022-08-03T00:09:08;1.70;;;1.57;;
46308;SDS011;32037;50.820;6.494;2022-08-03T00:11:37;1.77;;;1.50;;
46308;SDS011;32037;50.820;6.494;2022-08-03T00:14:05;1.63;;;1.50;;
46308;SDS011;32037;50.820;6.494;2022-08-03T00:16:34;1.73;;;1.63;;
46308;SDS011;32037;50.820;6.494;2022-08-03T00:19:03;2.20;;;1.57;;
46308;SDS011;32037;50.820;6.494;2022-08-03T00:21:32;2.67;;;1.30;;
46308;SDS011;32037;50.820;6.494;2022-08-03T00:24:00;1.40;;;1.20;;
46308;SDS011;32037;50.820;6.494;2022-08-03T00:26:28;1.90;;;1.80;;
46308;SDS011;32037;50.820;6.494;2022-08-03T00:28:57;1.57;;;1.47;;
46308;SDS011;32037;50.820;6.494;2022-08-03T00:31:25;1.90;;;1.80;;
46308;SDS011;32037;50.820;6.494;2022-08-03T00:34:14;1.33;;;1.23;;
46308;SDS011;32037;50.820;6.494;2022-08-03T00:36:56;2.67;;;1.43;;
46308;SDS011;32037;50.820;6.494;2022-08-03T00:39:24;1.93;;;1.80;;
46308;SDS011;32037;50.820;6.494;2022-08-03T00:41:52;1.80;;;1.70;;
46308;SDS011;32037;50.820;6.494;2022-08-03T00:44:20;2.07;;;1.40;;
46308;SDS011;32037;50.820;6.494;2022-08-03T00:46:48;1.70;;;1.53;;
46308;SDS011;32037;50.820;6.494;2022-08-03T00:49:17;2.33;;;1.50;;
46308;SDS011;32037;50.820;6.494;2022-08-03T00:51:45;1.53;;;1.43;;
46308;SDS011;32037;50.820;6.494;2022-08-03T00:54:14;2.33;;;1.87;;
46308;SDS011;32037;50.820;6.494;2022-08-03T00:56:42;1.97;;;1.87;;
46308;SDS011;32037;50.820;6.494;2022-08-03T00:59:25;1.40;;;1.30;;
46308;SDS011;32037;50.820;6.494;2022-08-03T01:01:54;2.40;;;1.67;;
46308;SDS011;32037;50.820;6.494;2022-08-03T01:04:23;2.27;;;1.90;;
46308;SDS011;32037;50.820;6.494;2022-08-03T01:06:55;1.73;;;1.63;;
46308;SDS011;32037;50.820;6.494;2022-08-03T01:09:31;2.53;;;1.80;;
46308;SDS011;32037;50.820;6.494;2022-08-03T01:12:08;1.57;;;1.47;;
46308;SDS011;32037;50.820;6.494;2022-08-03T01:14:43;1.87;;;1.67;;
46308;SDS011;32037;50.820;6.494;2022-08-03T01:17:27;1.80;;;1.70;;
46308;SDS011;32037;50.820;6.494;2022-08-03T01:20:03;2.10;;;1.70;;
46308;SDS011;32037;50.820;6.494;2022-08-03T01:22:51;1.90;;;1.80;;
46308;SDS011;32037;50.820;6.494;2022-08-03T01:25:58;1.67;;;1.57;;
46308;SDS011;32037;50.820;6.494;2022-08-03T01:28:39;1.60;;;1.50;;
46308;SDS011;32037;50.820;6.494;2022-08-03T01:31:25;1.90;;;1.80;;
46308;SDS011;32037;50.820;6.494;2022-08-03T01:33:56;2.50;;;2.30;;
46308;SDS011;32037;50.820;6.494;2022-08-03T01:36:29;2.37;;;2.17;;
46308;SDS011;32037;50.820;6.494;2022-08-03T01:39:00;1.90;;;1.63;;
46308;SDS011;32037;50.820;6.494;2022-08-03T01:41:36;1.80;;;1.70;;
46308;SDS011;32037;50.820;6.494;2022-08-03T01:44:09;2.50;;;2.03;;
46308;SDS011;32037;50.820;6.494;2022-08-03T01:46:57;2.17;;;1.80;;
46308;SDS011;32037;50.820;6.494;2022-08-03T01:49:27;2.00;;;1.23;;
46308;SDS011;32037;50.820;6.494;2022-08-03T01:51:58;1.70;;;1.60;;
46308;SDS011;32037;50.820;6.494;2022-08-03T01:54:41;1.70;;;1.60;;
46308;SDS011;32037;50.820;6.494;2022-08-03T01:57:10;2.20;;;2.07;;
46308;SDS011;32037;50.820;6.494;2022-08-03T01:59:40;1.87;;;1.77;;
46308;SDS011;32037;50.820;6.494;2022-08-03T02:02:11;2.10;;;1.80;;
46308;SDS011;32037;50.820;6.494;2022-08-03T02:05:00;2.30;;;1.80;;
46308;SDS011;32037;50.820;6.494;2022-08-03T02:07:36;1.53;;;1.43;;
46308;SDS011;32037;50.820;6.494;2022-08-03T02:10:07;3.30;;;1.60;;
46308;SDS011;32037;50.820;6.494;2022-08-03T02:12:37;1.80;;;1.70;;
46308;SDS011;32037;50.820;6.494;2022-08-03T02:15:07;2.07;;;1.40;;
46308;SDS011;32037;50.820;6.494;2022-08-03T02:17:37;2.30;;;1.77;;
46308;SDS011;32037;50.820;6.494;2022-08-03T02:20:08;2.50;;;2.00;;
46308;SDS011;32037;50.820;6.494;2022-08-03T02:22:39;1.67;;;1.50;;
46308;SDS011;32037;50.820;6.494;2022-08-03T02:25:08;1.83;;;1.73;;
46308;SDS011;32037;50.820;6.494;2022-08-03T02:27:40;1.80;;;1.60;;
46308;SDS011;32037;50.820;6.494;2022-08-03T02:30:12;1.53;;;1.43;;
46308;SDS011;32037;50.820;6.494;2022-08-03T02:32:43;2.00;;;1.90;;
46308;SDS011;32037;50.820;6.494;2022-08-03T02:35:17;1.60;;;1.50;;
46308;SDS011;32037;50.820;6.494;2022-08-03T02:37:51;1.80;;;1.60;;
46308;SDS011;32037;50.820;6.494;2022-08-03T02:40:22;2.60;;;1.30;;
46308;SDS011;32037;50.820;6.494;2022-08-03T02:42:53;1.90;;;1.27;;
46308;SDS011;32037;50.820;6.494;2022-08-03T02:45:24;2.00;;;1.90;;
46308;SDS011;32037;50.820;6.494;2022-08-03T02:47:55;2.60;;;2.03;;
46308;SDS011;32037;50.820;6.494;2022-08-03T02:50:29;1.40;;;1.30;;
46308;SDS011;32037;50.820;6.494;2022-08-03T02:53:00;1.70;;;1.60;;
46308;SDS011;32037;50.820;6.494;2022-08-03T02:55:29;1.80;;;1.70;;
46308;SDS011;32037;50.820;6.494;2022-08-03T02:58:08;1.53;;;1.37;;
46308;SDS011;32037;50.820;6.494;2022-08-03T03:00:38;2.30;;;1.57;;
46308;SDS011;32037;50.820;6.494;2022-08-03T03:03:09;1.70;;;1.60;;
46308;SDS011;32037;50.820;6.494;2022-08-03T03:05:37;1.70;;;1.60;;
46308;SDS011;32037;50.820;6.494;2022-08-03T03:08:21;1.10;;;1.03;;
46308;SDS011;32037;50.820;6.494;2022-08-03T03:10:54;1.60;;;1.50;;
46308;SDS011;32037;50.820;6.494;2022-08-03T03:13:24;1.33;;;1.23;;
46308;SDS011;32037;50.820;6.494;2022-08-03T03:15:56;1.70;;;1.40;;
46308;SDS011;32037;50.820;6.494;2022-08-03T03:18:28;1.60;;;1.50;;
46308;SDS011;32037;50.820;6.494;2022-08-03T03:20:58;1.40;;;1.30;;
46308;SDS011;32037;50.820;6.494;2022-08-03T03:23:28;2.50;;;1.30;;
46308;SDS011;32037;50.820;6.494;2022-08-03T03:25:59;1.60;;;1.33;;
46308;SDS011;32037;50.820;6.494;2022-08-03T03:28:28;1.83;;;1.73;;
46308;SDS011;32037;50.820;6.494;2022-08-03T03:30:58;1.53;;;1.30;;
46308;SDS011;32037;50.820;6.494;2022-08-03T03:33:28;1.47;;;1.37;;
46308;SDS011;32037;50.820;6.494;2022-08-03T03:35:56;1.83;;;1.50;;
46308;SDS011;32037;50.820;6.494;2022-08-03T03:38:25;1.70;;;1.60;;
46308;SDS011;32037;50.820;6.494;2022-08-03T03:40:54;1.50;;;1.40;;
46308;SDS011;32037;50.820;6.494;2022-08-03T03:43:22;1.93;;;1.83;;
46308;SDS011;32037;50.820;6.494;2022-08-03T03:45:50;1.60;;;1.50;;
46308;SDS011;32037;50.820;6.494;2022-08-03T03:48:19;1.40;;;1.30;;
46308;SDS011;32037;50.820;6.494;2022-08-03T03:50:48;1.40;;;1.30;;
46308;SDS011;32037;50.820;6.494;2022-08-03T03:53:17;1.67;;;1.57;;
46308;SDS011;32037;50.820;6.494;2022-08-03T03:55:45;1.60;;;1.50;;
46308;SDS011;32037;50.820;6.494;2022-08-03T03:58:27;1.50;;;1.40;;
46308;SDS011;32037;50.820;6.494;2022-08-03T04:00:57;1.30;;;1.20;;
46308;SDS011;32037;50.820;6.494;2022-08-03T04:03:25;1.60;;;1.50;;
46308;SDS011;32037;50.820;6.494;2022-08-03T04:05:55;1.50;;;1.40;;
46308;SDS011;32037;50.820;6.494;2022-08-03T04:08:42;1.30;;;1.20;;
46308;SDS011;32037;50.820;6.494;2022-08-03T04:11:44;1.70;;;1.60;;
46308;SDS011;32037;50.820;6.494;2022-08-03T04:14:15;1.70;;;1.60;;
46308;SDS011;32037;50.820;6.494;2022-08-03T04:16:47;1.47;;;1.37;;
46308;SDS011;32037;50.820;6.494;2022-08-03T04:19:18;1.57;;;1.30;;
46308;SDS011;32037;50.820;6.494;2022-08-03T04:21:53;1.57;;;1.47;;
46308;SDS011;32037;50.820;6.494;2022-08-03T04:24:25;1.67;;;1.47;;
46308;SDS011;32037;50.820;6.494;2022-08-03T04:26:59;1.40;;;1.30;;
46308;SDS011;32037;50.820;6.494;2022-08-03T04:29:32;2.00;;;1.80;;
46308;SDS011;32037;50.820;6.494;2022-08-03T04:32:13;1.30;;;1.20;;
46308;SDS011;32037;50.820;6.494;2022-08-03T04:34:42;1.50;;;1.30;;
46308;SDS011;32037;50.820;6.494;2022-08-03T04:37:13;2.00;;;1.80;;
46308;SDS011;32037;50.820;6.494;2022-08-03T04:39:45;1.97;;;1.87;;
46308;SDS011;32037;50.820;6.494;2022-08-03T04:42:17;1.20;;;1.10;;
46308;SDS011;32037;50.820;6.494;2022-08-03T04:44:48;1.50;;;1.40;;
46308;SDS011;32037;50.820;6.494;2022-08-03T04:47:20;1.60;;;1.50;;
46308;SDS011;32037;50.820;6.494;2022-08-03T04:49:49;1.73;;;1.63;;
46308;SDS011;32037;50.820;6.494;2022-08-03T04:52:19;1.70;;;1.60;;
46308;SDS011;32037;50.820;6.494;2022-08-03T04:54:47;2.07;;;1.97;;
46308;SDS011;32037;50.820;6.494;2022-08-03T04:57:16;1.60;;;1.50;;
46308;SDS011;32037;50.820;6.494;2022-08-03T04:59:49;1.80;;;1.50;;
46308;SDS011;32037;50.820;6.494;2022-08-03T05:02:28;1.83;;;1.53;;
46308;SDS011;32037;50.820;6.494;2022-08-03T05:04:57;1.70;;;1.60;;
46308;SDS011;32037;50.820;6.494;2022-08-03T05:07:27;1.47;;;1.37;;
46308;SDS011;32037;50.820;6.494;2022-08-03T05:10:01;4.00;;;2.53;;
46308;SDS011;32037;50.820;6.494;2022-08-03T05:12:40;4.40;;;3.47;;
46308;SDS011;32037;50.820;6.494;2022-08-03T05:15:09;5.93;;;3.97;;
46308;SDS011;32037;50.820;6.494;2022-08-03T05:17:38;6.10;;;4.20;;
46308;SDS011;32037;50.820;6.494;2022-08-03T05:20:06;5.23;;;3.50;;
46308;SDS011;32037;50.820;6.494;2022-08-03T05:22:37;5.43;;;4.30;;
46308;SDS011;32037;50.820;6.494;2022-08-03T05:25:05;4.30;;;3.87;;
46308;SDS011;32037;50.820;6.494;2022-08-03T05:27:34;5.90;;;4.17;;
46308;SDS011;32037;50.820;6.494;2022-08-03T05:30:02;8.17;;;4.87;;
46308;SDS011;32037;50.820;6.494;2022-08-03T05:32:51;9.60;;;5.17;;
46308;SDS011;32037;50.820;6.494;2022-08-03T05:35:19;7.37;;;5.53;;
46308;SDS011;32037;50.820;6.494;2022-08-03T05:38:11;5.73;;;5.10;;
46308;SDS011;32037;50.820;6.494;2022-08-03T05:40:49;7.27;;;4.40;;
46308;SDS011;32037;50.820;6.494;2022-08-03T05:43:22;5.80;;;5.10;;
46308;SDS011;32037;50.820;6.494;2022-08-03T05:45:50;9.07;;;5.20;;
46308;SDS011;32037;50.820;6.494;2022-08-03T05:48:37;7.40;;;4.90;;
46308;SDS011;32037;50.820;6.494;2022-08-03T05:51:06;6.73;;;4.47;;
46308;SDS011;32037;50.820;6.494;2022-08-03T05:53:38;7.83;;;4.87;;
46308;SDS011;32037;50.820;6.494;2022-08-03T05:56:07;5.33;;;4.70;;
46308;SDS011;32037;50.820;6.494;2022-08-03T05:58:40;8.13;;;4.57;;
46308;SDS011;32037;50.820;6.494;2022-08-03T06:01:08;8.10;;;5.10;;
46308;SDS011;32037;50.820;6.494;2022-08-03T06:03:36;4.23;;;3.83;;
46308;SDS011;32037;50.820;6.494;2022-08-03T06:06:04;3.80;;;3.03;;
46308;SDS011;32037;50.820;6.494;2022-08-03T06:08:33;4.53;;;3.70;;
46308;SDS011;32037;50.820;6.494;2022-08-03T06:11:02;6.20;;;3.83;;
46308;SDS011;32037;50.820;6.494;2022-08-03T06:13:30;5.03;;;3.80;;
46308;SDS011;32037;50.820;6.494;2022-08-03T06:15:58;5.90;;;3.23;;
46308;SDS011;32037;50.820;6.494;2022-08-03T06:18:27;3.47;;;3.23;;
46308;SDS011;32037;50.820;6.494;2022-08-03T06:20:55;6.33;;;3.50;;
46308;SDS011;32037;50.820;6.494;2022-08-03T06:23:36;3.47;;;3.17;;
46308;SDS011;32037;50.820;6.494;2022-08-03T06:26:20;4.23;;;3.20;;
46308;SDS011;32037;50.820;6.494;2022-08-03T06:28:53;4.77;;;3.50;;
46308;SDS011;32037;50.820;6.494;2022-08-03T06:31:22;4.93;;;3.70;;
46308;SDS011;32037;50.820;6.494;2022-08-03T06:33:58;4.60;;;3.33;;
46308;SDS011;32037;50.820;6.494;2022-08-03T06:36:48;5.27;;;3.17;;
46308;SDS011;32037;50.820;6.494;2022-08-03T06:39:18;4.30;;;3.20;;
46308;SDS011;32037;50.820;6.494;2022-08-03T06:41:51;5.77;;;4.50;;
46308;SDS011;32037;50.820;6.494;2022-08-03T06:44:20;5.93;;;3.80;;
46308;SDS011;32037;50.820;6.494;2022-08-03T06:46:49;3.63;;;3.33;;
46308;SDS011;32037;50.820;6.494;2022-08-03T06:49:17;5.23;;;4.00;;
46308;SDS011;32037;50.820;6.494;2022-08-03T06:51:46;4.13;;;3.40;;
46308;SDS011;32037;50.820;6.494;2022-08-03T06:54:31;13.60;;;7.40;;
46308;SDS011;32037;50.820;6.494;2022-08-03T06:57:04;5.47;;;4.20;;
46308;SDS011;32037;50.820;6.494;2022-08-03T06:59:34;3.20;;;2.90;;
46308;SDS011;32037;50.820;6.494;2022-08-03T07:02:23;4.00;;;2.97;;
46308;SDS011;32037;50.820;6.494;2022-08-03T07:04:54;4.70;;;3.53;;
46308;SDS011;32037;50.820;6.494;2022-08-03T07:07:22;8.53;;;3.17;;
46308;SDS011;32037;50.820;6.494;2022-08-03T07:09:50;4.80;;;3.30;;
46308;SDS011;32037;50.820;6.494;2022-08-03T07:12:26;3.83;;;3.20;;
46308;SDS011;32037;50.820;6.494;2022-08-03T07:14:56;5.17;;;3.50;;
46308;SDS011;32037;50.820;6.494;2022-08-03T07:17:28;7.70;;;3.23;;
46308;SDS011;32037;50.820;6.494;2022-08-03T07:19:57;3.23;;;2.90;;
46308;SDS011;32037;50.820;6.494;2022-08-03T07:22:26;5.40;;;3.33;;
46308;SDS011;32037;50.820;6.494;2022-08-03T07:24:54;4.90;;;3.33;;
46308;SDS011;32037;50.820;6.494;2022-08-03T07:27:23;4.90;;;2.97;;
46308;SDS011;32037;50.820;6.494;2022-08-03T07:29:55;4.30;;;3.20;;
46308;SDS011;32037;50.820;6.494;2022-08-03T07:32:25;4.43;;;3.00;;
46308;SDS011;32037;50.820;6.494;2022-08-03T07:34:57;3.10;;;2.80;;
46308;SDS011;32037;50.820;6.494;2022-08-03T07:37:26;4.43;;;3.00;;
46308;SDS011;32037;50.820;6.494;2022-08-03T07:39:56;3.03;;;2.67;;
46308;SDS011;32037;50.820;6.494;2022-08-03T07:42:24;3.50;;;3.20;;
46308;SDS011;32037;50.820;6.494;2022-08-03T07:44:53;6.23;;;3.10;;
46308;SDS011;32037;50.820;6.494;2022-08-03T07:47:23;3.53;;;3.23;;
46308;SDS011;32037;50.820;6.494;2022-08-03T07:50:01;3.67;;;2.93;;
46308;SDS011;32037;50.820;6.494;2022-08-03T07:52:30;3.47;;;3.17;;
46308;SDS011;32037;50.820;6.494;2022-08-03T07:55:18;3.50;;;3.20;;
46308;SDS011;32037;50.820;6.494;2022-08-03T07:57:46;3.17;;;2.60;;
46308;SDS011;32037;50.820;6.494;2022-08-03T08:00:26;4.80;;;3.40;;
46308;SDS011;32037;50.820;6.494;2022-08-03T08:02:54;3.47;;;2.80;;
46308;SDS011;32037;50.820;6.494;2022-08-03T08:05:23;4.13;;;2.90;;
46308;SDS011;32037;50.820;6.494;2022-08-03T08:07:51;2.67;;;2.47;;
46308;SDS011;32037;50.820;6.494;2022-08-03T08:10:19;3.43;;;3.07;;
46308;SDS011;32037;50.820;6.494;2022-08-03T08:12:47;3.27;;;2.80;;
46308;SDS011;32037;50.820;6.494;2022-08-03T08:15:15;4.73;;;3.23;;
46308;SDS011;32037;50.820;6.494;2022-08-03T08:17:45;3.10;;;2.80;;
46308;SDS011;32037;50.820;6.494;2022-08-03T08:20:16;3.40;;;2.90;;
46308;SDS011;32037;50.820;6.494;2022-08-03T08:22:54;3.07;;;2.77;;
46308;SDS011;32037;50.820;6.494;2022-08-03T08:25:23;3.17;;;2.70;;
46308;SDS011;32037;50.820;6.494;2022-08-03T08:27:52;3.20;;;2.90;;
46308;SDS011;32037;50.820;6.494;2022-08-03T08:30:40;3.03;;;2.73;;
46308;SDS011;32037;50.820;6.494;2022-08-03T08:33:09;3.47;;;3.17;;
46308;SDS011;32037;50.820;6.494;2022-08-03T08:35:49;6.80;;;3.10;;
46308;SDS011;32037;50.820;6.494;2022-08-03T08:38:18;3.60;;;3.00;;
46308;SDS011;32037;50.820;6.494;2022-08-03T08:40:46;3.37;;;2.73;;
46308;SDS011;32037;50.820;6.494;2022-08-03T08:43:15;3.70;;;3.10;;
46308;SDS011;32037;50.820;6.494;2022-08-03T08:45:43;3.03;;;2.83;;
46308;SDS011;32037;50.820;6.494;2022-08-03T08:48:13;3.70;;;2.87;;
46308;SDS011;32037;50.820;6.494;2022-08-03T08:50:44;2.73;;;2.53;;
46308;SDS011;32037;50.820;6.494;2022-08-03T08:53:12;3.30;;;3.00;;
46308;SDS011;32037;50.820;6.494;2022-08-03T08:55:44;4.13;;;3.13;;
46308;SDS011;32037;50.820;6.494;2022-08-03T08:58:28;3.03;;;2.73;;
46308;SDS011;32037;50.820;6.494;2022-08-03T09:01:01;2.30;;;2.10;;
46308;SDS011;32037;50.820;6.494;2022-08-03T09:03:33;2.73;;;2.53;;
46308;SDS011;32037;50.820;6.494;2022-08-03T09:06:01;3.60;;;2.50;;
46308;SDS011;32037;50.820;6.494;2022-08-03T09:08:30;2.60;;;2.40;;
46308;SDS011;32037;50.820;6.494;2022-08-03T09:10:59;2.97;;;2.30;;
46308;SDS011;32037;50.820;6.494;2022-08-03T09:13:27;2.70;;;2.50;;
46308;SDS011;32037;50.820;6.494;2022-08-03T09:16:08;2.90;;;2.63;;
46308;SDS011;32037;50.820;6.494;2022-08-03T09:18:38;2.67;;;1.90;;
46308;SDS011;32037;50.820;6.494;2022-08-03T09:21:13;2.73;;;2.40;;
46308;SDS011;32037;50.820;6.494;2022-08-03T09:24:00;4.67;;;2.60;;
46308;SDS011;32037;50.820;6.494;2022-08-03T09:26:34;2.80;;;2.30;;
46308;SDS011;32037;50.820;6.494;2022-08-03T09:29:04;2.70;;;2.50;;
46308;SDS011;32037;50.820;6.494;2022-08-03T09:31:40;3.27;;;2.97;;
46308;SDS011;32037;50.820;6.494;2022-08-03T09:34:12;2.90;;;2.60;;
46308;SDS011;32037;50.820;6.494;2022-08-03T09:36:42;4.53;;;2.67;;
46308;SDS011;32037;50.820;6.494;2022-08-03T09:39:12;2.53;;;2.33;;
46308;SDS011;32037;50.820;6.494;2022-08-03T09:41:41;3.63;;;2.50;;
46308;SDS011;32037;50.820;6.494;2022-08-03T09:44:11;3.70;;;2.23;;
46308;SDS011;32037;50.820;6.494;2022-08-03T09:46:52;2.80;;;2.13;;
46308;SDS011;32037;50.820;6.494;2022-08-03T09:49:23;2.80;;;2.40;;
46308;SDS011;32037;50.820;6.494;2022-08-03T09:51:51;2.67;;;1.93;;
46308;SDS011;32037;50.820;6.494;2022-08-03T09:54:40;2.20;;;2.00;;
46308;SDS011;32037;50.820;6.494;2022-08-03T09:57:18;1.97;;;1.77;;
46308;SDS011;32037;50.820;6.494;2022-08-03T09:59:49;3.03;;;2.73;;
46308;SDS011;32037;50.820;6.494;2022-08-03T10:02:37;4.30;;;2.70;;
46308;SDS011;32037;50.820;6.494;2022-08-03T10:05:09;3.70;;;1.88;;
46308;SDS011;32037;50.820;6.494;2022-08-03T10:07:45;2.93;;;1.80;;
46308;SDS011;32037;50.820;6.494;2022-08-03T10:10:15;2.40;;;2.20;;
46308;SDS011;32037;50.820;6.494;2022-08-03T10:12:57;3.20;;;2.30;;
46308;SDS011;32037;50.820;6.494;2022-08-03T10:15:26;4.23;;;1.93;;
46308;SDS011;32037;50.820;6.494;2022-08-03T10:18:15;2.20;;;1.93;;
46308;SDS011;32037;50.820;6.494;2022-08-03T10:20:47;2.10;;;1.90;;
46308;SDS011;32037;50.820;6.494;2022-08-03T10:23:18;2.03;;;1.80;;
46308;SDS011;32037;50.820;6.494;2022-08-03T10:25:48;1.90;;;1.80;;
46308;SDS011;32037;50.820;6.494;2022-08-03T10:28:19;2.23;;;2.03;;
46308;SDS011;32037;50.820;6.494;2022-08-03T10:30:49;2.20;;;2.00;;
46308;SDS011;32037;50.820;6.494;2022-08-03T10:33:19;2.40;;;1.67;;
46308;SDS011;32037;50.820;6.494;2022-08-03T10:36:09;2.20;;;2.00;;
46308;SDS011;32037;50.820;6.494;2022-08-03T10:38:42;3.17;;;2.27;;
46308;SDS011;32037;50.820;6.494;2022-08-03T10:41:12;1.80;;;1.70;;
46308;SDS011;32037;50.820;6.494;2022-08-03T10:43:44;1.77;;;1.67;;
46308;SDS011;32037;50.820;6.494;2022-08-03T10:46:17;2.30;;;1.80;;
46308;SDS011;32037;50.820;6.494;2022-08-03T10:48:47;2.27;;;2.07;;
46308;SDS011;32037;50.820;6.494;2022-08-03T10:51:19;1.90;;;1.80;;
46308;SDS011;32037;50.820;6.494;2022-08-03T10:53:47;1.80;;;1.70;;
46308;SDS011;32037;50.820;6.494;2022-08-03T11:02:23;3.03;;;1.60;;
46308;SDS011;32037;50.820;6.494;2022-08-03T11:05:40;2.00;;;1.80;;
46308;SDS011;32037;50.820;6.494;2022-08-03T11:13:57;2.00;;;1.73;;
46308;SDS011;32037;50.820;6.494;2022-08-03T11:16:28;2.20;;;1.90;;
46308;SDS011;32037;50.820;6.494;2022-08-03T11:18:57;2.50;;;1.63;;
46308;SDS011;32037;50.820;6.494;2022-08-03T11:27:29;2.93;;;1.87;;
46308;SDS011;32037;50.820;6.494;2022-08-03T11:30:00;1.77;;;1.67;;
46308;SDS011;32037;50.820;6.494;2022-08-03T11:35:33;1.83;;;1.70;;
46308;SDS011;32037;50.820;6.494;2022-08-03T11:38:03;3.00;;;2.17;;
46308;SDS011;32037;50.820;6.494;2022-08-03T11:40:35;2.20;;;2.00;;
46308;SDS011;32037;50.820;6.494;2022-08-03T11:43:06;1.57;;;1.47;;
46308;SDS011;32037;50.820;6.494;2022-08-03T11:45:35;2.43;;;1.80;;
46308;SDS011;32037;50.820;6.494;2022-08-03T11:48:14;2.10;;;1.47;;
46308;SDS011;32037;50.820;6.494;2022-08-03T11:50:42;2.20;;;1.70;;
46308;SDS011;32037;50.820;6.494;2022-08-03T11:53:14;1.97;;;1.57;;
46308;SDS011;32037;50.820;6.494;2022-08-03T11:55:46;1.90;;;1.70;;
46308;SDS011;32037;50.820;6.494;2022-08-03T11:58:18;2.40;;;1.50;;
46308;SDS011;32037;50.820;6.494;2022-08-03T12:01:07;1.60;;;1.37;;
46308;SDS011;32037;50.820;6.494;2022-08-03T12:03:37;2.40;;;2.00;;
46308;SDS011;32037;50.820;6.494;2022-08-03T12:06:08;1.93;;;1.80;;
46308;SDS011;32037;50.820;6.494;2022-08-03T12:08:37;1.97;;;1.77;;
46308;SDS011;32037;50.820;6.494;2022-08-03T12:11:07;1.50;;;1.40;;
46308;SDS011;32037;50.820;6.494;2022-08-03T12:13:40;1.63;;;1.40;;
46308;SDS011;32037;50.820;6.494;2022-08-03T12:16:30;2.23;;;1.53;;
46308;SDS011;32037;50.820;6.494;2022-08-03T12:18:58;2.23;;;1.80;;
46308;SDS011;32037;50.820;6.494;2022-08-03T12:21:28;2.07;;;1.70;;
46308;SDS011;32037;50.820;6.494;2022-08-03T12:23:57;1.60;;;1.50;;
46308;SDS011;32037;50.820;6.494;2022-08-03T12:26:27;2.07;;;1.53;;
46308;SDS011;32037;50.820;6.494;2022-08-03T12:28:56;2.07;;;1.57;;
46308;SDS011;32037;50.820;6.494;2022-08-03T12:31:24;1.77;;;1.67;;
46308;SDS011;32037;50.820;6.494;2022-08-03T12:33:59;1.83;;;1.65;;
46308;SDS011;32037;50.820;6.494;2022-08-03T12:36:29;1.80;;;1.70;;
46308;SDS011;32037;50.820;6.494;2022-08-03T12:39:00;1.90;;;1.70;;
46308;SDS011;32037;50.820;6.494;2022-08-03T12:41:34;1.57;;;1.47;;
46308;SDS011;32037;50.820;6.494;2022-08-03T12:44:04;1.70;;;1.60;;
46308;SDS011;32037;50.820;6.494;2022-08-03T12:46:33;2.23;;;2.03;;
46308;SDS011;32037;50.820;6.494;2022-08-03T12:49:06;1.63;;;1.53;;
46308;SDS011;32037;50.820;6.494;2022-08-03T12:51:37;2.00;;;1.87;;
46308;SDS011;32037;50.820;6.494;2022-08-03T12:54:23;1.90;;;1.80;;
46308;SDS011;32037;50.820;6.494;2022-08-03T12:56:57;2.00;;;1.80;;
46308;SDS011;32037;50.820;6.494;2022-08-03T12:59:27;1.90;;;1.60;;
46308;SDS011;32037;50.820;6.494;2022-08-03T13:02:01;1.33;;;1.23;;
46308;SDS011;32037;50.820;6.494;2022-08-03T13:04:35;1.73;;;1.63;;
46308;SDS011;32037;50.820;6.494;2022-08-03T13:07:03;1.70;;;1.50;;
46308;SDS011;32037;50.820;6.494;2022-08-03T13:09:40;1.70;;;1.60;;
46308;SDS011;32037;50.820;6.494;2022-08-03T13:12:11;1.30;;;1.10;;
46308;SDS011;32037;50.820;6.494;2022-08-03T13:14:41;3.57;;;1.70;;
46308;SDS011;32037;50.820;6.494;2022-08-03T13:17:10;1.60;;;1.50;;
46308;SDS011;32037;50.820;6.494;2022-08-03T13:19:39;1.57;;;1.47;;
46308;SDS011;32037;50.820;6.494;2022-08-03T13:22:10;1.87;;;1.60;;
46308;SDS011;32037;50.820;6.494;2022-08-03T13:24:39;1.67;;;1.57;;
46308;SDS011;32037;50.820;6.494;2022-08-03T13:27:09;1.53;;;1.30;;
46308;SDS011;32037;50.820;6.494;2022-08-03T13:29:58;1.90;;;1.50;;
46308;SDS011;32037;50.820;6.494;2022-08-03T13:32:26;2.10;;;1.50;;
46308;SDS011;32037;50.820;6.494;2022-08-03T13:34:55;2.00;;;1.80;;
46308;SDS011;32037;50.820;6.494;2022-08-03T13:37:23;1.60;;;1.40;;
46308;SDS011;32037;50.820;6.494;2022-08-03T13:39:51;1.80;;;1.70;;
46308;SDS011;32037;50.820;6.494;2022-08-03T13:42:26;1.90;;;1.80;;
46308;SDS011;32037;50.820;6.494;2022-08-03T13:44:55;1.50;;;1.40;;
46308;SDS011;32037;50.820;6.494;2022-08-03T13:47:24;1.37;;;1.27;;
46308;SDS011;32037;50.820;6.494;2022-08-03T13:49:52;1.50;;;1.40;;
46308;SDS011;32037;50.820;6.494;2022-08-03T13:52:28;1.73;;;1.63;;
46308;SDS011;32037;50.820;6.494;2022-08-03T13:54:57;1.57;;;1.47;;
46308;SDS011;32037;50.820;6.494;2022-08-03T13:57:27;1.30;;;1.20;;
46308;SDS011;32037;50.820;6.494;2022-08-03T14:00:16;2.13;;;1.50;;
46308;SDS011;32037;50.820;6.494;2022-08-03T14:02:55;1.50;;;1.30;;
46308;SDS011;32037;50.820;6.494;2022-08-03T14:05:39;1.60;;;1.50;;
46308;SDS011;32037;50.820;6.494;2022-08-03T14:08:08;2.03;;;1.83;;
46308;SDS011;32037;50.820;6.494;2022-08-03T14:10:37;1.70;;;1.30;;
46308;SDS011;32037;50.820;6.494;2022-08-03T14:13:09;1.57;;;1.37;;
46308;SDS011;32037;50.820;6.494;2022-08-03T14:15:42;1.70;;;1.60;;
46308;SDS011;32037;50.820;6.494;2022-08-03T14:18:16;1.57;;;1.43;;
46308;SDS011;32037;50.820;6.494;2022-08-03T14:20:59;1.50;;;1.40;;
46308;SDS011;32037;50.820;6.494;2022-08-03T14:23:32;1.50;;;1.40;;
46308;SDS011;32037;50.820;6.494;2022-08-03T14:26:00;1.40;;;1.20;;
46308;SDS011;32037;50.820;6.494;2022-08-03T14:28:30;1.67;;;1.37;;
46308;SDS011;32037;50.820;6.494;2022-08-03T14:30:58;1.57;;;1.47;;
46308;SDS011;32037;50.820;6.494;2022-08-03T14:33:27;1.53;;;1.43;;
46308;SDS011;32037;50.820;6.494;2022-08-03T14:35:55;1.30;;;1.20;;
46308;SDS011;32037;50.820;6.494;2022-08-03T14:38:23;1.40;;;1.30;;
46308;SDS011;32037;50.820;6.494;2022-08-03T14:40:51;2.40;;;1.70;;
46308;SDS011;32037;50.820;6.494;2022-08-03T14:43:19;1.87;;;1.77;;
46308;SDS011;32037;50.820;6.494;2022-08-03T14:45:49;1.30;;;1.20;;
46308;SDS011;32037;50.820;6.494;2022-08-03T14:48:18;1.73;;;1.50;;
46308;SDS011;32037;50.820;6.494;2022-08-03T14:51:07;1.60;;;1.50;;
46308;SDS011;32037;50.820;6.494;2022-08-03T14:53:35;1.00;;;0.90;;
46308;SDS011;32037;50.820;6.494;2022-08-03T14:56:03;1.93;;;1.47;;
46308;SDS011;32037;50.820;6.494;2022-08-03T14:58:36;1.77;;;1.20;;
46308;SDS011;32037;50.820;6.494;2022-08-03T15:01:06;1.90;;;1.60;;
46308;SDS011;32037;50.820;6.494;2022-08-03T15:03:54;2.60;;;1.53;;
46308;SDS011;32037;50.820;6.494;2022-08-03T15:06:22;2.07;;;1.60;;
46308;SDS011;32037;50.820;6.494;2022-08-03T15:08:50;2.20;;;1.43;;
46308;SDS011;32037;50.820;6.494;2022-08-03T15:11:39;1.67;;;1.57;;
46308;SDS011;32037;50.820;6.494;2022-08-03T15:14:07;2.03;;;1.83;;
46308;SDS011;32037;50.820;6.494;2022-08-03T15:16:40;1.80;;;1.50;;
46308;SDS011;32037;50.820;6.494;2022-08-03T15:19:08;2.53;;;1.20;;
46308;SDS011;32037;50.820;6.494;2022-08-03T15:21:56;1.90;;;1.70;;
46308;SDS011;32037;50.820;6.494;2022-08-03T15:24:26;0.83;;;0.83;;
46308;SDS011;32037;50.820;6.494;2022-08-03T15:26:54;1.57;;;1.30;;
46308;SDS011;32037;50.820;6.494;2022-08-03T15:29:22;1.37;;;1.27;;
46308;SDS011;32037;50.820;6.494;2022-08-03T15:32:12;1.40;;;1.30;;
46308;SDS011;32037;50.820;6.494;2022-08-03T15:34:40;1.60;;;1.50;;
46308;SDS011;32037;50.820;6.494;2022-08-03T15:37:16;1.83;;;1.73;;
46308;SDS011;32037;50.820;6.494;2022-08-03T15:39:46;1.23;;;1.13;;
46308;SDS011;32037;50.820;6.494;2022-08-03T15:42:26;1.50;;;1.40;;